Portada
METAR-TAF:

METAR-TAF

Aeroports :

Nouméa La Tontouta, Nova Caledònia

latitud: 22-01S, longitud: 166-13E, altitud: 16 m

Observació

L'informe es va fer fa 6 minuts, a les 03:30 UTC
Vent 4 kt del Oest
Temperatura 24°C
Humitat 69%
Pressió 1016 hPa
Visibilitat 10 km o més
Núvols disperses a una alçada de 4700 ft
Cel cobert a una alçada de 12000 ft

METAR: NWWW 180330Z AUTO 26004KT 9999 R11/1200U SCT047 OVC120 24/18 Q1016 NOSIG

Hora: 14:36 (03:36 UTC)

Pronòstic

L'informe es va fer fa 4 hores i 36 minuts, a les 23:00 UTC
Pronòstic vàlid del 18 a les 00 UTC al 18 a les 24 UTC
Vent 2 kt amb direcció variable
Visibilitat 10 km o més
sense núvols per sota de 1500 mi sense presència de cumulonimbus.
Evolucionant progressivament
l' 18 a les 00 UTC al 18 a les 02 UTC
Vent 8 kt del Sud-Oest
Evolucionant progressivament
l' 18 a les 05 UTC al 18 a les 07 UTC
Vent 2 kt amb direcció variable

TAF: NWWW 172300Z 1800/1824 VRB02KT CAVOK BECMG 1800/1802 23008KT BECMG 1805/1807 VRB02KT

Observacions i pronòstics meteorològics de més de 4000 aeroports (METAR i TAF).

Les estacions disponibles són els punts grocs i vermells al mapa.

Posi el ratolí al punt desitjat per veure el nom de l'estació.

Feu clic per veure les observacions i els pronòstics meteorològics.

Per canviar el mapa: feu clic els botons verds amb una creu de color negre per apropar; al botó verd amb un guió per allunyar la imatge; o en les fletxes verdes per a mapes adjacents.


METAR-TAF: